Venango Regional Airport Franklin US
ICAO: KFKL
IATA: FKL
Category: Medium
Scheduled Services: No

Elevation: 1540 ft
TransAlt. 18000 ft.

Airport Communications:
YOUNGSTOWN APP/DEP:133.95
AWOS 3:118.175
CLNC DEL:126.25
ALTOONA RDO:109.6
CTAF/UNICOM:122.7

KFKL Zoom In..

If you have problems with the map follow the link
https://www.worldairports.se/pages/airport.php?
ICAO=KFKL

Runways:

(A) RW 03 length 5200 ft width 150 ft
---- / hdg 27

(B) RW 12 length 3593 ft width 100 ft
---- / hdg 116

(C) RW 21 length 5200 ft width 150 ft
ILS 110.50 / hdg 207

(D) RW 30 length 3593 ft width 100 ft
---- / hdg 296

Location; KFKL
Day. 17 / Time. 01.56 Zulu
* Altimeter: 29.99
* Temperature: 00° c. 32°f.
* Wind from: 250° Speed 10 kn with Gusts up to 17 kn.
Dewpoint: -01° c.
Visibility: 3 Statute Miles.
Clouds: Overcast 400 ft.
Conditions: Mist.

KFKL 170156Z AUTO 25010G17KT 3SM BR OVC004 00/M01 A2999 RMK AO2 UPB16E41 SLPNO P0000 T00001006 FZRANO


Wind From 250°
Speed 10 kn.

 
 
jpsmedia.com for Web Design worldairports.se 2018   terms of use